createdAt,value
2022-12-25T00:03:43.616Z,13.04
2022-12-25T00:08:47.270Z,13.00
2022-12-25T00:13:52.154Z,12.88
2022-12-25T00:18:58.847Z,12.83
2022-12-25T00:24:03.456Z,12.73
2022-12-25T00:29:08.258Z,12.70
2022-12-25T00:34:11.667Z,12.75
2022-12-25T00:39:15.129Z,12.87
2022-12-25T00:44:19.943Z,13.00
2022-12-25T00:49:23.649Z,12.94
2022-12-25T00:54:27.166Z,13.04
2022-12-25T00:59:34.021Z,13.14
2022-12-25T01:04:37.729Z,13.24
2022-12-25T01:09:58.911Z,13.22
2022-12-25T01:15:04.807Z,13.21
2022-12-25T01:20:09.500Z,13.26
2022-12-25T01:25:13.753Z,13.26
2022-12-25T01:30:18.598Z,13.16
2022-12-25T01:35:22.032Z,13.14
2022-12-25T01:40:25.492Z,13.23
2022-12-25T01:45:39.635Z,13.36
2022-12-25T01:50:46.519Z,13.30
2022-12-25T01:55:52.467Z,13.24
2022-12-25T02:00:57.243Z,13.33
2022-12-25T02:06:01.940Z,13.35
2022-12-25T02:11:05.726Z,13.33
2022-12-25T02:16:13.373Z,13.12
2022-12-25T02:21:30.240Z,13.02
2022-12-25T02:26:47.068Z,13.07
2022-12-25T02:31:56.676Z,13.08
2022-12-25T02:37:06.176Z,13.11
2022-12-25T02:42:13.778Z,13.09
2022-12-25T02:47:36.488Z,13.04
2022-12-25T02:52:58.512Z,13.21
2022-12-25T02:58:23.169Z,13.33
2022-12-25T03:03:49.320Z,13.48
2022-12-25T03:09:16.348Z,13.53
2022-12-25T03:14:37.583Z,13.46
2022-12-25T03:20:05.042Z,13.49
2022-12-25T03:25:27.176Z,13.56
2022-12-25T03:30:56.228Z,13.54
2022-12-25T03:36:04.884Z,13.54
2022-12-25T03:41:29.731Z,13.58
2022-12-25T03:46:53.940Z,13.69
2022-12-25T03:52:20.848Z,13.78
2022-12-25T03:57:41.991Z,13.73
2022-12-25T04:03:03.109Z,13.65
2022-12-25T04:08:25.300Z,13.57
2022-12-25T04:13:46.524Z,13.57
2022-12-25T04:19:07.523Z,13.59
2022-12-25T04:24:30.303Z,13.92
2022-12-25T04:29:51.440Z,13.90
2022-12-25T04:35:12.615Z,13.82
2022-12-25T04:40:17.849Z,13.94
2022-12-25T04:45:21.742Z,13.65
2022-12-25T04:50:25.177Z,13.92
2022-12-25T04:55:30.138Z,14.13
2022-12-25T05:00:33.730Z,14.42
2022-12-25T05:05:40.597Z,14.40
2022-12-25T05:10:45.663Z,14.41
2022-12-25T05:15:49.213Z,14.54
2022-12-25T05:20:54.010Z,14.65
2022-12-25T05:25:59.640Z,14.62
2022-12-25T05:31:03.529Z,14.84
2022-12-25T05:36:09.142Z,14.96
2022-12-25T05:41:14.186Z,15.17
2022-12-25T05:46:17.832Z,15.19
2022-12-25T05:51:21.442Z,15.29
2022-12-25T05:56:26.232Z,15.34
2022-12-25T06:01:29.956Z,15.51
2022-12-25T06:06:33.546Z,15.52
2022-12-25T06:11:38.530Z,15.71
2022-12-25T06:16:42.444Z,15.71
2022-12-25T06:21:46.046Z,15.73
2022-12-25T06:26:51.051Z,15.79
2022-12-25T06:31:57.265Z,15.79
2022-12-25T06:37:01.113Z,15.44
2022-12-25T06:42:06.073Z,15.45
2022-12-25T06:47:09.798Z,15.56
2022-12-25T06:52:13.319Z,15.68
2022-12-25T06:57:18.913Z,15.84
2022-12-25T07:02:23.974Z,15.86
2022-12-25T07:07:27.543Z,15.81
2022-12-25T07:12:32.656Z,15.49
2022-12-25T07:17:36.673Z,15.71
2022-12-25T07:22:40.113Z,15.77
2022-12-25T07:27:44.953Z,15.84
2022-12-25T07:32:50.346Z,15.86
2022-12-25T07:37:54.502Z,16.01
2022-12-25T07:42:59.439Z,16.00
2022-12-25T07:48:05.805Z,16.02
2022-12-25T07:53:10.973Z,15.99
2022-12-25T07:58:19.947Z,15.99
2022-12-25T08:03:26.828Z,16.19
2022-12-25T08:08:30.543Z,15.78
2022-12-25T08:13:35.828Z,15.67
2022-12-25T08:18:40.049Z,15.47
2022-12-25T08:23:45.376Z,15.86
2022-12-25T08:28:50.765Z,16.28
2022-12-25T08:33:56.723Z,16.42
2022-12-25T08:39:03.099Z,16.54
2022-12-25T08:44:08.824Z,16.54
2022-12-25T08:49:12.319Z,16.68
2022-12-25T08:54:15.853Z,16.72
2022-12-25T08:59:20.841Z,16.74
2022-12-25T09:04:24.311Z,16.95
2022-12-25T09:09:28.532Z,17.03
2022-12-25T09:14:33.462Z,16.45
2022-12-25T09:19:36.903Z,17.06
2022-12-25T09:24:40.340Z,17.44
2022-12-25T09:29:45.304Z,17.59
2022-12-25T09:34:48.772Z,17.69
2022-12-25T09:39:52.265Z,17.85
2022-12-25T09:45:00.168Z,17.85
2022-12-25T09:50:08.984Z,17.78
2022-12-25T09:55:19.772Z,17.54
2022-12-25T10:00:26.879Z,17.71
2022-12-25T10:05:51.113Z,17.80
2022-12-25T10:11:01.749Z,17.81
2022-12-25T10:16:12.584Z,17.78
2022-12-25T10:21:18.198Z,17.91
2022-12-25T10:26:25.117Z,17.99
2022-12-25T10:31:31.533Z,18.12
2022-12-25T10:36:35.074Z,18.23
2022-12-25T10:41:54.690Z,18.17
2022-12-25T10:47:00.819Z,18.17
2022-12-25T10:52:05.678Z,18.19
2022-12-25T10:57:16.207Z,18.27
2022-12-25T11:02:25.796Z,18.33
2022-12-25T11:07:29.503Z,18.51
2022-12-25T11:12:36.272Z,18.58
2022-12-25T11:17:49.715Z,18.36
2022-12-25T11:22:53.626Z,18.64
2022-12-25T11:28:01.935Z,18.67
2022-12-25T11:33:08.882Z,18.80
2022-12-25T11:38:12.351Z,18.85
2022-12-25T11:43:18.407Z,18.89
2022-12-25T11:48:27.489Z,18.87
2022-12-25T11:53:32.975Z,18.83
2022-12-25T11:58:39.623Z,18.88
2022-12-25T12:03:46.068Z,18.74
2022-12-25T12:08:52.734Z,18.82
2022-12-25T12:14:16.490Z,18.76
2022-12-25T12:19:27.972Z,18.84
2022-12-25T12:24:35.294Z,18.75
2022-12-25T12:29:42.061Z,18.56
2022-12-25T12:34:50.138Z,18.65
2022-12-25T12:39:55.416Z,18.55
2022-12-25T12:45:08.519Z,18.34
2022-12-25T12:50:30.060Z,18.41
2022-12-25T12:55:35.119Z,18.24
2022-12-25T13:00:42.199Z,18.41
2022-12-25T13:05:50.793Z,18.42
2022-12-25T13:11:05.365Z,18.35
2022-12-25T13:16:16.174Z,18.48
2022-12-25T13:21:24.332Z,18.59
2022-12-25T13:26:28.389Z,18.36
2022-12-25T13:31:32.336Z,18.43
2022-12-25T13:36:40.205Z,18.34
2022-12-25T13:42:03.395Z,18.34
2022-12-25T13:47:17.145Z,18.26
2022-12-25T13:52:25.511Z,18.27
2022-12-25T13:57:31.891Z,18.21
2022-12-25T14:02:38.817Z,18.29
2022-12-25T14:07:43.908Z,18.11
2022-12-25T14:12:49.461Z,18.38
2022-12-25T14:17:53.464Z,18.10
2022-12-25T14:23:00.699Z,18.05
2022-12-25T14:28:07.349Z,17.82
2022-12-25T14:33:13.990Z,17.90
2022-12-25T14:38:24.079Z,17.88
2022-12-25T14:43:28.865Z,17.80
2022-12-25T14:48:33.636Z,18.19
2022-12-25T14:53:41.214Z,18.09
2022-12-25T14:58:48.528Z,18.27
2022-12-25T15:03:52.222Z,17.96
2022-12-25T15:08:58.680Z,18.10
2022-12-25T15:14:02.078Z,17.94
2022-12-25T15:19:07.686Z,17.79
2022-12-25T15:24:13.677Z,18.11
2022-12-25T15:29:27.583Z,18.05
2022-12-25T15:34:40.647Z,17.95
2022-12-25T15:39:46.049Z,18.05
2022-12-25T15:44:49.529Z,18.14
2022-12-25T15:49:53.125Z,18.02
2022-12-25T15:54:57.934Z,18.07
2022-12-25T16:00:01.419Z,18.04
2022-12-25T16:05:15.240Z,18.13
2022-12-25T16:10:22.622Z,18.07
2022-12-25T16:15:25.928Z,17.88
2022-12-25T16:20:29.716Z,17.94
2022-12-25T16:25:34.592Z,17.98
2022-12-25T16:30:38.760Z,18.04
2022-12-25T16:35:42.175Z,18.03
2022-12-25T16:40:48.963Z,18.04
2022-12-25T16:45:52.531Z,18.11
2022-12-25T16:50:56.064Z,18.01
2022-12-25T16:56:07.852Z,17.92
2022-12-25T17:01:12.688Z,17.99
2022-12-25T17:06:16.690Z,17.99
2022-12-25T17:11:26.178Z,17.83
2022-12-25T17:16:31.040Z,17.86
2022-12-25T17:21:35.364Z,18.01
2022-12-25T17:26:41.459Z,18.00
2022-12-25T17:31:45.083Z,18.09
2022-12-25T17:36:48.633Z,18.04
2022-12-25T17:41:53.415Z,18.20
2022-12-25T17:46:56.838Z,17.79
2022-12-25T17:52:00.373Z,18.02
2022-12-25T17:57:05.185Z,18.06
2022-12-25T18:02:10.161Z,17.67
2022-12-25T18:07:14.032Z,17.65
2022-12-25T18:12:18.788Z,18.14
2022-12-25T18:17:22.250Z,17.67
2022-12-25T18:22:25.607Z,18.13
2022-12-25T18:27:30.400Z,18.06
2022-12-25T18:32:33.830Z,18.19
2022-12-25T18:37:40.146Z,18.27
2022-12-25T18:42:46.508Z,17.94
2022-12-25T18:47:49.893Z,18.19
2022-12-25T18:52:53.495Z,18.01
2022-12-25T18:57:59.271Z,17.69
2022-12-25T19:03:02.770Z,17.86
2022-12-25T19:08:06.654Z,17.84
2022-12-25T19:13:11.460Z,18.08
2022-12-25T19:18:14.838Z,18.36
2022-12-25T19:23:18.240Z,18.11
2022-12-25T19:28:24.972Z,18.52
2022-12-25T19:33:28.471Z,18.62
2022-12-25T19:38:31.873Z,18.13
2022-12-25T19:43:37.843Z,18.12
2022-12-25T19:48:41.265Z,18.23
2022-12-25T19:53:44.976Z,18.24
2022-12-25T19:58:49.886Z,18.01
2022-12-25T20:03:53.549Z,18.07
2022-12-25T20:08:58.967Z,17.97
2022-12-25T20:14:03.988Z,18.02
2022-12-25T20:19:07.740Z,17.74
2022-12-25T20:24:11.482Z,17.63
2022-12-25T20:29:16.328Z,18.31
2022-12-25T20:34:19.741Z,18.25
2022-12-25T20:39:23.195Z,18.30
2022-12-25T20:44:27.985Z,18.49
2022-12-25T20:49:32.529Z,17.91
2022-12-25T20:54:36.325Z,18.49
2022-12-25T20:59:43.345Z,18.66
2022-12-25T21:04:52.354Z,18.56
2022-12-25T21:09:57.737Z,18.73
2022-12-25T21:15:02.486Z,18.78
2022-12-25T21:20:08.264Z,18.46
2022-12-25T21:25:11.641Z,18.64
2022-12-25T21:30:16.490Z,18.56
2022-12-25T21:35:19.972Z,18.43
2022-12-25T21:40:23.530Z,18.47
2022-12-25T21:45:28.706Z,18.58
2022-12-25T21:50:51.934Z,18.64
2022-12-25T21:56:00.457Z,18.44
2022-12-25T22:01:05.499Z,18.50
2022-12-25T22:06:26.732Z,18.66
2022-12-25T22:11:47.912Z,18.68
2022-12-25T22:17:10.435Z,18.37
2022-12-25T22:22:13.876Z,18.47
2022-12-25T22:27:17.835Z,18.75
2022-12-25T22:32:23.700Z,18.82
2022-12-25T22:37:27.194Z,18.78
2022-12-25T22:42:30.644Z,19.01
2022-12-25T22:47:35.481Z,18.79
2022-12-25T22:52:39.169Z,18.90
2022-12-25T22:57:42.541Z,18.70
2022-12-25T23:02:47.618Z,18.67
2022-12-25T23:07:51.262Z,18.61
2022-12-25T23:13:12.389Z,19.16
2022-12-25T23:18:34.739Z,18.93
2022-12-25T23:23:55.830Z,18.98
2022-12-25T23:29:16.954Z,18.80
2022-12-25T23:34:22.458Z,18.80
2022-12-25T23:39:25.894Z,19.08
2022-12-25T23:44:29.849Z,19.21
2022-12-25T23:49:34.556Z,19.17
2022-12-25T23:54:38.041Z,19.25
2022-12-25T23:59:41.508Z,19.13
